• Join FlightAware (Why Join?)
  • Login
  • US Flag 
06:18PM EST


 

Airport Tracker/Info


-or-


 

Live Flight TrackerFlight Track Log ✈ EGF3740 ✈ 12-May-2013 ✈ KMSP - KORD

Flight Track Log - Related Links

Times and Time Zones

All times are in EDT time to prevent confusion due to time zone crossing. See the EGF3740 flight status page for this flight to view local times or setup timezone preferences in your user account.

Time Position Orientation Groundspeed Altitude Reporting Facility
EDT Latitude Longitude Course Direction KTS MPH feet Rate Location/Type
07:05AM 44.8236 -93.2242 180° South 191 220 3,300  Level Minneapolis Center
07:06AM 44.7558 -93.1992 165° South 255 293 6,000 2,500 Climbing Minneapolis Center
07:07AM 44.6947 -92.8478 156° South  Level Estimated
07:07AM 44.6875 -93.1597 158° South 299 344 8,300  Level Minneapolis Center
07:08AM 44.6320 -92.7236 152° Southeast  Level Estimated
07:08AM 44.6061 -93.1139 158° South 313 360 10,800  Level Minneapolis Center
07:09AM 44.5692 -92.5998 157° South  Level Estimated
07:09AM 44.5139 -93.0617 158° South 353 406 12,700  Level Minneapolis Center
07:10AM 44.5062 -92.4762 180° South  Level Estimated
07:10AM 44.4517 -92.9433 126° Southeast 383 441 14,300  Level Minneapolis Center
07:11AM 44.3906 -92.8072 122° Southeast 413 475 16,000 1,650 Climbing Minneapolis Center
07:12AM 44.3261 -92.6683 123° Southeast 426 490 17,600 1,750 Climbing Minneapolis Center
07:13AM 44.2464 -92.4994 123° Southeast 431 496 19,500 1,884 Climbing Minneapolis Center
07:14AM 44.1781 -92.3550 123° Southeast 441 507 21,400 1,686 Climbing Minneapolis Center
07:15AM 44.1086 -92.2078 123° Southeast 452 520 22,900 1,500 Climbing Minneapolis Center
07:16AM 44.0383 -92.0578 123° Southeast 461 531 24,400 1,273 Climbing Minneapolis Center
07:17AM 43.9653 -91.9058 124° Southeast 472 543 25,700 1,308 Climbing Minneapolis Center
07:18AM 43.8764 -91.7208 124° Southeast 480 552 27,300 1,339 Climbing Minneapolis Center
07:19AM 43.8006 -91.5647 124° Southeast 486 559 28,400 850 Climbing Minneapolis Center
07:20AM 43.7233 -91.4039 124° Southeast 493 567 29,000 300 Climbing Minneapolis Center
07:21AM 43.6453 -91.2456 124° Southeast 498 573 29,000  Level Minneapolis Center
07:22AM 43.5669 -91.0833 124° Southeast 505 581 29,000  Level Minneapolis Center
07:23AM 43.4869 -90.9214 124° Southeast 510 587 29,000  Level Minneapolis Center
07:24AM 43.4064 -90.7594 124° Southeast 512 589 29,000  Level Minneapolis Center
07:25AM 43.3250 -90.5967 124° Southeast 516 594 29,000  Level Minneapolis Center
07:26AM 43.2611 -90.4686 124° Southeast 515 593 29,000 -57 Level Chicago Center
07:27AM 43.1806 -90.3056 124° Southeast 517 595 28,900 -49 Descending Chicago Center
07:28AM 43.0981 -90.1456 125° Southeast 518 596 28,900 -992 Level Chicago Center
07:29AM 43.0153 -89.9875 126° Southeast 514 592 26,900 -1,934 Descending Chicago Center
07:30AM 42.9328 -89.8275 125° Southeast 490 564 25,000 -1,438 Descending Chicago Center
07:31AM 42.8556 -89.6761 125° Southeast 486 559 24,000 -496 Descending Chicago Center
07:32AM 42.7789 -89.5261 125° Southeast 484 557 24,000 -197 Level Chicago Center
07:33AM 42.7014 -89.3792 126° Southeast 479 551 23,600 -1,587 Descending Chicago Center
07:34AM 42.6250 -89.2333 125° Southeast 475 547 20,800 -2,678 Descending Chicago Center
07:35AM 42.5528 -89.0906 124° Southeast 460 529 18,200 -2,557 Descending Chicago Center
07:36AM 42.5089 -88.9403 112° Southeast 434 499 15,600 -2,479 Descending Chicago Center
07:37AM 42.4658 -88.7947 112° Southeast 422 486 13,200 -2,033 Descending Chicago Center
07:38AM 42.4244 -88.6594 112° Southeast 401 461 11,500 -1,426 Descending Chicago Center
07:39AM 42.3844 -88.5294 113° Southeast 383 441 10,300 -744 Descending Chicago Center
07:40AM 42.3444 -88.4022 113° Southeast 373 429 10,000 -149 Descending Chicago Center
07:41AM 42.2750 -88.2814 128° Southeast 368 423 10,000  Level Chicago Center
07:42AM 42.2108 -88.1722 128° Southeast 371 427 10,000 -98 Level Chicago Center
07:43AM 42.1406 -88.0836 137° Southeast 347 399 9,800 -927 Descending Chicago Center
07:44AM 42.1000 -88.0000 123° Southeast 304 350 8,300 -1,515 Descending Chicago TRACON
07:45AM 42.1000 -87.9167 90° East 290 334 7,200 -889 Descending Chicago TRACON
07:46AM 42.1000 -87.8333 90° East 246 283 6,700 -850 Descending Chicago TRACON
07:47AM 42.1000 -87.7500 90° East 195 224 5,500 -1,091 Descending Chicago TRACON
07:48AM 42.0833 -87.6667 105° East 202 232 4,300 -1,039 Descending Chicago TRACON
07:49AM 42.0333 -87.6500 166° South 204 235 3,300 -645 Descending Chicago TRACON
07:50AM 42.0000 -87.7000 228° Southwest 172 198 3,000 -316 Descending Chicago TRACON
07:51AM 41.9833 -87.7500 246° West 161 185 2,700 -500 Descending Chicago TRACON
07:52AM 41.9833 -87.8000 270° West 151 174 2,000 -714 Descending Chicago TRACON
07:53AM 41.9833 -87.8500 270° West 130 150 1,200 -800 Descending Chicago TRACON
07:55AM 41.9667 -87.9000 257° West  Level FlightAware Approximate
08:02AM 41.9817 -87.9067 257° West  Level Estimated